createdAt,value
2019-05-17T00:00:11.319Z,86.71
2019-05-17T00:02:46.433Z,86.11
2019-05-17T00:05:17.759Z,85.81
2019-05-17T00:07:48.865Z,85.85
2019-05-17T00:10:19.767Z,86.03
2019-05-17T00:12:50.910Z,85.53
2019-05-17T00:15:21.862Z,85.53
2019-05-17T00:17:53.094Z,85.25
2019-05-17T00:20:26.470Z,85.48
2019-05-17T00:22:57.483Z,84.97
2019-05-17T00:25:28.535Z,85.80
2019-05-17T00:27:59.694Z,85.43
2019-05-17T00:30:31.074Z,84.96
2019-05-17T00:33:02.167Z,85.57
2019-05-17T00:35:33.340Z,85.67
2019-05-17T00:38:06.566Z,84.51
2019-05-17T00:40:37.598Z,85.51
2019-05-17T00:43:08.707Z,86.07
2019-05-17T00:45:40.344Z,86.29
2019-05-17T00:48:11.540Z,86.04
2019-05-17T00:50:42.805Z,86.17
2019-05-17T00:53:16.244Z,85.95
2019-05-17T00:55:47.230Z,85.85
2019-05-17T00:58:18.231Z,86.24
2019-05-17T01:00:49.858Z,86.44
2019-05-17T01:03:20.976Z,86.69
2019-05-17T01:05:51.964Z,86.58
2019-05-17T01:08:23.052Z,86.01
2019-05-17T01:10:56.483Z,86.40
2019-05-17T01:13:27.257Z,86.30
2019-05-17T01:15:58.878Z,86.28
2019-05-17T01:18:30.392Z,86.37
2019-05-17T01:21:01.797Z,86.51
2019-05-17T01:23:33.400Z,86.62
2019-05-17T01:26:07.311Z,86.23
2019-05-17T01:28:38.774Z,86.31
2019-05-17T01:31:10.048Z,86.44
2019-05-17T01:33:41.531Z,86.36
2019-05-17T01:36:12.977Z,86.07
2019-05-17T01:38:44.112Z,86.51
2019-05-17T01:41:17.188Z,86.60
2019-05-17T01:43:48.197Z,86.19
2019-05-17T01:46:19.533Z,86.50
2019-05-17T01:48:50.999Z,86.84
2019-05-17T01:51:22.258Z,86.51
2019-05-17T01:53:53.807Z,86.86
2019-05-17T01:56:26.256Z,86.84
2019-05-17T01:58:57.928Z,86.54
2019-05-17T02:01:29.548Z,86.56
2019-05-17T02:04:01.046Z,86.45
2019-05-17T02:06:32.486Z,86.38
2019-05-17T02:09:06.323Z,86.68
2019-05-17T02:11:37.997Z,86.01
2019-05-17T02:14:09.151Z,86.18
2019-05-17T02:16:40.404Z,86.18
2019-05-17T02:19:11.810Z,86.19
2019-05-17T02:21:43.176Z,85.70
2019-05-17T02:24:16.951Z,85.67
2019-05-17T02:26:48.206Z,84.88
2019-05-17T02:29:21.443Z,85.54
2019-05-17T02:31:53.069Z,85.58
2019-05-17T02:34:24.037Z,86.03
2019-05-17T02:36:55.789Z,86.18
2019-05-17T02:39:27.216Z,86.44
2019-05-17T02:41:58.745Z,86.35
2019-05-17T02:44:33.155Z,86.33
2019-05-17T02:47:03.468Z,86.44
2019-05-17T02:49:34.716Z,86.38
2019-05-17T02:52:06.099Z,86.17
2019-05-17T02:54:37.414Z,86.20
2019-05-17T02:57:08.530Z,86.00
2019-05-17T02:59:39.763Z,85.58
2019-05-17T03:02:12.662Z,85.99
2019-05-17T03:04:44.249Z,86.17
2019-05-17T03:07:15.247Z,85.91
2019-05-17T03:09:46.286Z,86.14
2019-05-17T03:12:17.334Z,86.03
2019-05-17T03:14:48.609Z,86.29
2019-05-17T03:17:22.961Z,87.07
2019-05-17T03:19:53.427Z,86.47
2019-05-17T03:22:24.770Z,86.77
2019-05-17T03:24:56.229Z,86.91
2019-05-17T03:27:27.371Z,86.93
2019-05-17T03:29:58.946Z,86.59
2019-05-17T03:32:35.810Z,86.78
2019-05-17T03:35:06.669Z,86.55
2019-05-17T03:37:37.888Z,86.36
2019-05-17T03:40:24.926Z,85.80
2019-05-17T03:42:43.713Z,85.87
2019-05-17T03:45:15.119Z,85.90
2019-05-17T03:47:46.783Z,85.36
2019-05-17T03:50:18.011Z,85.52
2019-05-17T03:52:49.400Z,85.43
2019-05-17T03:55:23.251Z,85.22
2019-05-17T03:57:53.679Z,85.23
2019-05-17T04:00:25.013Z,85.59
2019-05-17T04:02:56.498Z,84.71
2019-05-17T04:05:27.890Z,85.44
2019-05-17T04:07:59.011Z,85.27
2019-05-17T04:10:33.012Z,85.26
2019-05-17T04:13:04.406Z,84.72
2019-05-17T04:15:35.900Z,84.73
2019-05-17T04:18:06.776Z,84.46
2019-05-17T04:20:38.026Z,84.61
2019-05-17T04:23:12.484Z,85.21
2019-05-17T04:25:43.486Z,84.88
2019-05-17T04:28:14.868Z,85.11
2019-05-17T04:30:45.893Z,84.83
2019-05-17T04:33:17.051Z,84.24
2019-05-17T04:35:48.152Z,84.74
2019-05-17T04:38:23.326Z,85.13
2019-05-17T04:40:53.808Z,85.20
2019-05-17T04:43:25.214Z,85.42
2019-05-17T04:45:56.493Z,84.49
2019-05-17T04:48:27.752Z,84.50
2019-05-17T04:50:58.878Z,84.26
2019-05-17T04:53:32.865Z,84.48
2019-05-17T04:56:03.485Z,84.92
2019-05-17T04:58:34.850Z,84.92
2019-05-17T05:01:06.070Z,84.97
2019-05-17T05:03:37.179Z,83.99
2019-05-17T05:06:08.190Z,84.55
2019-05-17T05:08:42.205Z,84.31
2019-05-17T05:11:12.684Z,85.15
2019-05-17T05:13:44.340Z,85.75
2019-05-17T05:16:15.449Z,84.33
2019-05-17T05:18:46.739Z,84.50
2019-05-17T05:21:18.358Z,84.07
2019-05-17T05:23:51.707Z,84.63
2019-05-17T05:26:22.395Z,85.00
2019-05-17T05:28:53.409Z,84.38
2019-05-17T05:31:24.599Z,84.16
2019-05-17T05:33:55.865Z,83.82
2019-05-17T05:36:27.027Z,82.80
2019-05-17T05:38:58.089Z,81.61
2019-05-17T05:41:29.052Z,83.72
2019-05-17T05:44:01.935Z,82.48
2019-05-17T05:46:33.319Z,83.25
2019-05-17T05:49:04.609Z,83.46
2019-05-17T05:51:35.771Z,83.95
2019-05-17T05:54:07.114Z,82.66
2019-05-17T05:56:38.272Z,81.47
2019-05-17T05:59:11.898Z,80.25
2019-05-17T06:01:42.771Z,80.40
2019-05-17T06:04:13.799Z,80.21
2019-05-17T06:06:44.910Z,79.89
2019-05-17T06:09:16.267Z,80.68
2019-05-17T06:11:47.639Z,79.40
2019-05-17T06:14:18.668Z,79.24
2019-05-17T06:16:52.001Z,79.38
2019-05-17T06:19:22.664Z,78.81
2019-05-17T06:21:54.327Z,79.60
2019-05-17T06:24:25.988Z,78.29
2019-05-17T06:26:57.128Z,80.01
2019-05-17T06:29:28.528Z,79.04
2019-05-17T06:32:02.380Z,78.64
2019-05-17T06:34:33.019Z,77.31
2019-05-17T06:37:04.205Z,77.48
2019-05-17T06:39:35.361Z,76.30
2019-05-17T06:42:06.263Z,76.12
2019-05-17T06:44:37.700Z,76.12
2019-05-17T06:47:11.722Z,74.16
2019-05-17T06:49:42.542Z,71.01
2019-05-17T06:52:13.552Z,69.62
2019-05-17T06:54:45.008Z,68.35
2019-05-17T06:57:16.233Z,68.77
2019-05-17T06:59:47.096Z,70.47
2019-05-17T07:02:19.742Z,72.01
2019-05-17T07:04:53.644Z,74.57
2019-05-17T07:07:30.146Z,71.09
2019-05-17T07:10:01.024Z,71.09
2019-05-17T07:12:33.358Z,70.95
2019-05-17T07:15:04.675Z,69.61
2019-05-17T07:17:35.822Z,70.95
2019-05-17T07:20:07.026Z,70.95
2019-05-17T07:22:40.736Z,66.72
2019-05-17T07:25:11.228Z,65.27
2019-05-17T07:27:45.749Z,65.16
2019-05-17T07:30:16.189Z,64.98
2019-05-17T07:32:49.836Z,65.50
2019-05-17T07:35:20.446Z,66.59
2019-05-17T07:37:51.543Z,65.32
2019-05-17T07:40:22.724Z,63.59
2019-05-17T07:43:06.922Z,61.80
2019-05-17T07:45:26.769Z,64.55
2019-05-17T07:48:00.026Z,64.05
2019-05-17T07:50:30.865Z,64.85
2019-05-17T07:53:02.156Z,67.67
2019-05-17T07:55:33.920Z,66.80
2019-05-17T07:58:05.144Z,67.61
2019-05-17T08:00:36.320Z,67.45
2019-05-17T08:03:12.110Z,68.06
2019-05-17T08:05:41.790Z,68.00
2019-05-17T08:08:12.607Z,68.05
2019-05-17T08:10:43.841Z,68.13
2019-05-17T08:13:25.890Z,67.79
2019-05-17T08:15:47.388Z,70.41
2019-05-17T08:18:20.363Z,68.61
2019-05-17T08:20:52.211Z,70.33
2019-05-17T08:23:24.495Z,70.56
2019-05-17T08:54:56.168Z,56.50
2019-05-17T08:57:30.079Z,57.07
2019-05-17T09:00:00.989Z,58.24
2019-05-17T09:02:33.498Z,57.91
2019-05-17T09:05:05.854Z,57.22
2019-05-17T09:07:37.154Z,58.31
2019-05-17T09:10:10.417Z,58.56
2019-05-17T09:12:43.472Z,59.33
2019-05-17T09:15:15.524Z,59.84
2019-05-17T09:17:47.073Z,59.89
2019-05-17T09:20:20.496Z,57.51
2019-05-17T09:22:52.981Z,57.49
2019-05-17T09:25:24.768Z,58.95
2019-05-17T09:27:56.701Z,58.67
2019-05-17T09:30:31.311Z,58.46
2019-05-17T09:33:02.166Z,57.81
2019-05-17T09:35:33.408Z,57.73
2019-05-17T09:38:04.615Z,57.73
2019-05-17T09:40:35.961Z,59.35
2019-05-17T09:43:09.863Z,57.23
2019-05-17T09:45:40.809Z,58.15
2019-05-17T09:48:13.097Z,53.70
2019-05-17T09:50:44.422Z,55.78
2019-05-17T09:53:16.492Z,54.21
2019-05-17T09:55:49.801Z,53.40
2019-05-17T09:58:21.789Z,51.99
2019-05-17T10:00:53.012Z,51.18
2019-05-17T10:03:24.762Z,50.06
2019-05-17T10:05:56.636Z,51.72
2019-05-17T10:08:27.971Z,51.64
2019-05-17T10:11:08.631Z,51.72
2019-05-17T10:13:31.685Z,52.00
2019-05-17T10:16:03.373Z,53.77
2019-05-17T10:18:35.266Z,52.61
2019-05-17T10:21:06.472Z,52.97
2019-05-17T10:23:37.350Z,54.29
2019-05-17T10:26:10.272Z,54.29
2019-05-17T10:28:42.979Z,55.52
2019-05-17T10:31:14.269Z,52.37
2019-05-17T10:33:45.836Z,52.67
2019-05-17T10:36:17.036Z,52.38
2019-05-17T10:38:50.227Z,50.54
2019-05-17T10:41:22.399Z,50.31
2019-05-17T10:43:53.844Z,50.28
2019-05-17T10:46:25.282Z,51.17
2019-05-17T10:48:56.460Z,50.88
2019-05-17T10:51:29.618Z,51.22
2019-05-17T10:54:04.043Z,51.19
2019-05-17T10:56:34.285Z,50.27
2019-05-17T10:59:05.988Z,52.58
2019-05-17T11:01:37.615Z,53.34
2019-05-17T11:04:10.457Z,51.97
2019-05-17T11:06:42.074Z,53.04
2019-05-17T11:09:13.586Z,50.63
2019-05-17T11:11:44.833Z,52.37
2019-05-17T11:14:16.341Z,51.95
2019-05-17T11:16:47.413Z,52.15
2019-05-17T11:19:19.131Z,52.25
2019-05-17T11:21:50.798Z,54.76
2019-05-17T11:24:21.932Z,53.61
2019-05-17T11:26:53.276Z,51.74
2019-05-17T11:29:24.441Z,52.58
2019-05-17T11:31:55.946Z,54.58
2019-05-17T11:34:27.025Z,53.53
2019-05-17T11:36:58.560Z,54.85
2019-05-17T11:39:29.885Z,56.69
2019-05-17T11:42:01.232Z,54.30
2019-05-17T11:44:32.775Z,54.75
2019-05-17T11:47:04.056Z,54.69
2019-05-17T11:49:35.302Z,54.47
2019-05-17T11:52:06.717Z,54.08
2019-05-17T11:54:37.564Z,54.19
2019-05-17T11:57:08.488Z,53.97
2019-05-17T11:59:39.576Z,55.09
2019-05-17T12:02:10.794Z,55.38
2019-05-17T12:04:42.384Z,54.47
2019-05-17T12:07:13.721Z,52.24
2019-05-17T12:09:45.250Z,54.05
2019-05-17T12:12:16.639Z,55.05
2019-05-17T12:14:48.685Z,53.36
2019-05-17T12:17:20.005Z,51.70
2019-05-17T12:19:50.989Z,55.01
2019-05-17T12:22:23.239Z,54.83
2019-05-17T12:24:54.939Z,55.92
2019-05-17T12:27:26.151Z,54.44
2019-05-17T12:29:57.625Z,54.25
2019-05-17T12:32:28.970Z,54.85
2019-05-17T12:35:00.681Z,55.49
2019-05-17T12:37:32.515Z,55.63
2019-05-17T12:40:04.472Z,57.50
2019-05-17T12:42:36.061Z,56.68
2019-05-17T12:45:07.654Z,57.11
2019-05-17T12:47:39.145Z,57.78
2019-05-17T12:50:10.892Z,56.96
2019-05-17T12:52:42.188Z,57.43
2019-05-17T12:55:13.561Z,58.01
2019-05-17T12:57:45.603Z,57.67
2019-05-17T13:00:17.911Z,58.53
2019-05-17T13:02:49.213Z,56.88
2019-05-17T13:05:20.385Z,56.82
2019-05-17T13:07:51.690Z,57.74
2019-05-17T13:10:22.964Z,58.56
2019-05-17T13:12:54.110Z,58.96
2019-05-17T13:15:26.942Z,58.22
2019-05-17T13:17:57.948Z,57.64
2019-05-17T13:20:29.187Z,58.77
2019-05-17T13:23:00.242Z,56.99
2019-05-17T13:25:31.716Z,58.73
2019-05-17T13:28:03.075Z,56.97
2019-05-17T13:30:34.157Z,57.19
2019-05-17T13:33:05.471Z,58.09
2019-05-17T13:35:37.418Z,58.04
2019-05-17T13:38:08.582Z,57.66
2019-05-17T13:40:40.234Z,58.31
2019-05-17T13:43:11.649Z,57.30
2019-05-17T13:45:43.937Z,57.42
2019-05-17T13:48:15.929Z,57.66
2019-05-17T13:50:47.174Z,57.64
2019-05-17T13:53:20.712Z,58.11
2019-05-17T13:55:51.748Z,59.08
2019-05-17T13:58:22.667Z,59.34
2019-05-17T14:00:53.550Z,58.90
2019-05-17T14:03:24.996Z,59.52
2019-05-17T14:05:56.201Z,59.84
2019-05-17T14:08:27.247Z,59.96
2019-05-17T14:10:58.263Z,60.91
2019-05-17T14:13:29.592Z,61.20
2019-05-17T14:16:00.886Z,62.37
2019-05-17T14:18:32.498Z,63.89
2019-05-17T14:21:03.937Z,63.58
2019-05-17T14:23:35.113Z,64.41
2019-05-17T14:26:06.781Z,65.63
2019-05-17T14:28:38.871Z,65.09
2019-05-17T14:31:10.641Z,66.57
2019-05-17T14:33:41.865Z,67.94
2019-05-17T14:36:13.055Z,68.63
2019-05-17T14:38:44.421Z,68.93
2019-05-17T14:41:15.857Z,69.27
2019-05-17T14:43:47.714Z,69.58
2019-05-17T14:46:20.545Z,69.58
2019-05-17T14:48:52.951Z,70.76
2019-05-17T14:51:24.716Z,71.04
2019-05-17T14:53:55.914Z,71.60
2019-05-17T14:56:28.590Z,71.24
2019-05-17T14:58:59.519Z,71.18
2019-05-17T15:01:32.889Z,71.54
2019-05-17T15:04:03.878Z,71.96
2019-05-17T15:06:35.336Z,72.09
2019-05-17T15:09:11.330Z,72.19
2019-05-17T15:11:40.905Z,72.64
2019-05-17T15:14:12.479Z,72.10
2019-05-17T15:16:43.683Z,71.79
2019-05-17T15:19:15.383Z,71.72
2019-05-17T15:21:46.810Z,72.58
2019-05-17T15:24:18.304Z,72.30
2019-05-17T15:27:04.078Z,71.96
2019-05-17T15:29:22.216Z,71.78
2019-05-17T15:31:53.399Z,72.11
2019-05-17T15:34:24.957Z,72.40
2019-05-17T15:36:55.956Z,72.82
2019-05-17T15:39:26.892Z,72.73
2019-05-17T15:41:58.020Z,72.60
2019-05-17T15:44:30.027Z,74.51
2019-05-17T15:47:01.126Z,74.51
2019-05-17T15:49:32.077Z,74.55
2019-05-17T15:52:03.201Z,74.73
2019-05-17T15:54:33.944Z,73.46
2019-05-17T15:57:05.798Z,73.35
2019-05-17T15:59:36.671Z,73.36
2019-05-17T16:02:07.877Z,74.03
2019-05-17T16:04:39.166Z,74.06
2019-05-17T16:07:11.521Z,76.11
2019-05-17T16:09:42.933Z,75.88
2019-05-17T16:12:14.508Z,75.88
2019-05-17T16:14:45.398Z,76.29
2019-05-17T16:17:16.379Z,76.74
2019-05-17T16:19:47.643Z,77.18
2019-05-17T16:22:18.805Z,77.78
2019-05-17T16:24:50.950Z,77.78
2019-05-17T16:27:21.831Z,78.05
2019-05-17T16:29:53.120Z,77.83
2019-05-17T16:32:24.396Z,78.57
2019-05-17T16:34:55.554Z,80.73
2019-05-17T16:37:26.564Z,82.09
2019-05-17T16:39:57.663Z,83.55
2019-05-17T16:42:29.212Z,83.55
2019-05-17T16:45:00.566Z,84.87
2019-05-17T16:47:31.659Z,84.87
2019-05-17T16:50:02.870Z,84.97
2019-05-17T16:52:35.213Z,84.97
2019-05-17T16:55:07.185Z,84.39
2019-05-17T16:57:38.694Z,84.92
2019-05-17T17:00:29.866Z,85.90
2019-05-17T17:03:01.117Z,85.90
2019-05-17T17:05:32.236Z,85.98
2019-05-17T17:08:03.129Z,84.99
2019-05-17T17:10:34.244Z,84.20
2019-05-17T17:13:06.118Z,83.38
2019-05-17T17:15:37.275Z,83.38
2019-05-17T17:18:08.548Z,83.95
2019-05-17T17:20:40.120Z,83.53
2019-05-17T17:23:11.248Z,82.86
2019-05-17T17:25:42.562Z,82.94
2019-05-17T17:28:14.499Z,82.62
2019-05-17T17:30:45.835Z,82.39
2019-05-17T17:33:17.519Z,82.37
2019-05-17T17:35:49.572Z,81.80
2019-05-17T17:38:20.711Z,81.99
2019-05-17T17:40:52.023Z,81.96
2019-05-17T17:43:23.055Z,81.72
2019-05-17T17:45:54.093Z,81.22
2019-05-17T17:48:25.445Z,81.05
2019-05-17T17:50:56.363Z,80.98
2019-05-17T17:53:28.362Z,82.15
2019-05-17T17:55:59.557Z,82.15
2019-05-17T17:58:30.827Z,83.58
2019-05-17T18:01:02.147Z,82.90
2019-05-17T18:03:33.241Z,82.86
2019-05-17T18:06:04.196Z,83.09
2019-05-17T18:08:35.564Z,83.09
2019-05-17T18:11:06.754Z,84.21
2019-05-17T18:13:38.346Z,84.22
2019-05-17T18:16:09.619Z,84.98
2019-05-17T18:18:40.847Z,84.81
2019-05-17T18:21:12.143Z,84.60
2019-05-17T18:23:43.122Z,85.26
2019-05-17T18:26:14.487Z,82.58
2019-05-17T18:28:45.934Z,82.66
2019-05-17T18:31:17.101Z,82.66
2019-05-17T18:33:48.298Z,81.17
2019-05-17T18:36:19.270Z,81.17
2019-05-17T18:38:54.143Z,81.37
2019-05-17T18:41:25.227Z,82.75
2019-05-17T18:43:56.584Z,82.41
2019-05-17T18:46:27.737Z,82.41
2019-05-17T18:48:59.189Z,81.71
2019-05-17T18:51:30.473Z,81.94
2019-05-17T18:54:02.132Z,81.94
2019-05-17T18:56:33.430Z,82.85
2019-05-17T18:59:04.342Z,83.06
2019-05-17T19:01:35.383Z,81.95
2019-05-17T19:04:06.518Z,83.38
2019-05-17T19:06:37.656Z,83.68
2019-05-17T19:09:09.008Z,84.55
2019-05-17T19:11:40.082Z,84.66
2019-05-17T19:14:11.523Z,84.90
2019-05-17T19:16:43.038Z,85.46
2019-05-17T19:19:14.120Z,85.96
2019-05-17T19:21:45.047Z,86.53
2019-05-17T19:24:17.722Z,87.45
2019-05-17T19:26:48.794Z,86.92
2019-05-17T19:29:20.420Z,87.40
2019-05-17T19:31:52.434Z,87.40
2019-05-17T19:34:24.025Z,86.35
2019-05-17T19:36:55.251Z,85.89
2019-05-17T19:39:26.875Z,85.63
2019-05-17T19:41:58.233Z,85.49
2019-05-17T19:44:29.257Z,85.49
2019-05-17T19:47:00.492Z,86.34
2019-05-17T19:49:31.672Z,86.34
2019-05-17T19:52:02.729Z,87.10
2019-05-17T19:54:34.199Z,85.55
2019-05-17T19:57:05.621Z,85.55
2019-05-17T19:59:37.115Z,85.24
2019-05-17T20:02:08.279Z,86.07
2019-05-17T20:04:41.086Z,86.59
2019-05-17T20:07:12.181Z,86.59
2019-05-17T20:09:43.576Z,86.75
2019-05-17T20:12:14.738Z,86.56
2019-05-17T20:14:45.908Z,86.50
2019-05-17T20:17:17.126Z,86.25
2019-05-17T20:19:48.623Z,85.94
2019-05-17T20:22:19.930Z,85.78
2019-05-17T20:24:50.999Z,85.37
2019-05-17T20:27:21.992Z,85.47
2019-05-17T20:29:53.192Z,85.85
2019-05-17T20:32:24.304Z,85.79
2019-05-17T20:34:55.347Z,85.36
2019-05-17T20:37:26.502Z,85.36
2019-05-17T20:39:57.773Z,85.57
2019-05-17T20:42:28.734Z,85.57
2019-05-17T20:44:59.785Z,86.06
2019-05-17T20:47:31.053Z,86.60
2019-05-17T20:50:01.972Z,87.01
2019-05-17T20:52:32.935Z,86.64
2019-05-17T20:55:04.012Z,86.64
2019-05-17T20:57:35.163Z,86.51
2019-05-17T21:00:09.467Z,86.75
2019-05-17T21:02:40.796Z,86.90
2019-05-17T21:05:14.086Z,87.51
2019-05-17T21:07:45.719Z,88.01
2019-05-17T21:10:17.091Z,87.75
2019-05-17T21:12:48.265Z,88.00
2019-05-17T21:15:19.570Z,88.04
2019-05-17T21:17:51.089Z,87.84
2019-05-17T21:20:22.172Z,88.00
2019-05-17T21:22:54.428Z,88.44
2019-05-17T21:25:25.520Z,88.33
2019-05-17T21:27:56.673Z,88.42
2019-05-17T21:30:27.517Z,88.01
2019-05-17T21:32:59.007Z,87.93
2019-05-17T21:35:30.256Z,88.28
2019-05-17T21:38:01.391Z,88.24
2019-05-17T21:40:33.315Z,88.26
2019-05-17T21:43:04.764Z,88.65
2019-05-17T21:45:36.407Z,89.09
2019-05-17T21:48:07.898Z,89.36
2019-05-17T21:50:39.068Z,89.51
2019-05-17T21:53:10.555Z,89.95
2019-05-17T21:55:41.908Z,90.18
2019-05-17T21:58:12.949Z,90.00
2019-05-17T22:01:17.007Z,90.09
2019-05-17T22:03:48.686Z,90.18
2019-05-17T22:06:20.233Z,90.48
2019-05-17T22:08:52.326Z,90.84
2019-05-17T22:11:23.604Z,91.06
2019-05-17T22:13:54.982Z,91.10
2019-05-17T22:16:26.220Z,91.45
2019-05-17T22:18:57.424Z,90.98
2019-05-17T22:21:28.761Z,90.66
2019-05-17T22:24:00.140Z,90.64
2019-05-17T22:26:31.353Z,90.68
2019-05-17T22:29:02.526Z,90.76
2019-05-17T22:31:33.829Z,90.63
2019-05-17T22:34:05.257Z,90.73
2019-05-17T22:36:36.415Z,90.86
2019-05-17T22:39:08.531Z,90.71
2019-05-17T22:41:39.679Z,90.71
2019-05-17T22:44:10.757Z,90.86
2019-05-17T22:46:41.983Z,90.66
2019-05-17T22:49:12.909Z,91.01
2019-05-17T22:51:44.190Z,91.06
2019-05-17T22:54:15.463Z,91.66
2019-05-17T22:56:46.715Z,91.60
2019-05-17T22:59:17.797Z,91.24
2019-05-17T23:01:48.911Z,91.09
2019-05-17T23:04:19.878Z,91.45
2019-05-17T23:06:50.693Z,91.49
2019-05-17T23:09:21.733Z,91.50
2019-05-17T23:11:53.006Z,91.47
2019-05-17T23:14:24.105Z,91.00
2019-05-17T23:16:55.696Z,90.56
2019-05-17T23:19:26.737Z,90.15
2019-05-17T23:21:57.852Z,90.45
2019-05-17T23:24:29.490Z,89.95
2019-05-17T23:27:00.675Z,89.92
2019-05-17T23:29:31.895Z,90.23
2019-05-17T23:32:03.382Z,89.94
2019-05-17T23:34:34.420Z,89.96
2019-05-17T23:37:05.755Z,90.04
2019-05-17T23:39:36.901Z,90.21
2019-05-17T23:42:08.052Z,90.16
2019-05-17T23:44:39.164Z,90.04
2019-05-17T23:47:10.080Z,89.86
2019-05-17T23:49:41.383Z,90.07
2019-05-17T23:52:12.603Z,90.30
2019-05-17T23:54:43.946Z,90.28
2019-05-17T23:57:14.962Z,90.25
2019-05-17T23:59:47.649Z,89.72
